createdAt,value
2023-05-14T00:01:58.865Z,100.00
2023-05-14T00:04:26.468Z,100.00
2023-05-14T00:06:53.964Z,100.00
2023-05-14T00:09:21.491Z,100.00
2023-05-14T00:11:49.192Z,100.00
2023-05-14T00:14:16.743Z,100.00
2023-05-14T00:16:44.365Z,100.00
2023-05-14T00:19:12.017Z,100.00
2023-05-14T00:21:39.589Z,100.00
2023-05-14T00:24:07.274Z,100.00
2023-05-14T00:26:34.848Z,100.00
2023-05-14T00:29:02.310Z,100.00
2023-05-14T00:31:29.847Z,100.00
2023-05-14T00:33:57.452Z,100.00
2023-05-14T00:36:24.956Z,100.00
2023-05-14T00:38:52.586Z,100.00
2023-05-14T00:41:20.092Z,100.00
2023-05-14T00:43:47.605Z,100.00
2023-05-14T00:46:15.799Z,100.00
2023-05-14T00:48:43.411Z,100.00
2023-05-14T00:51:11.054Z,100.00
2023-05-14T00:53:38.752Z,100.00
2023-05-14T00:56:06.983Z,100.00
2023-05-14T00:58:34.523Z,100.00
2023-05-14T01:01:02.097Z,100.00
2023-05-14T01:03:31.811Z,100.00
2023-05-14T01:06:14.510Z,100.00
2023-05-14T01:08:51.213Z,100.00
2023-05-14T01:11:25.769Z,100.00
2023-05-14T01:14:09.975Z,100.00
2023-05-14T01:16:39.282Z,100.00
2023-05-14T01:19:11.663Z,100.00
2023-05-14T01:21:44.443Z,100.00
2023-05-14T01:24:11.920Z,100.00
2023-05-14T01:26:39.468Z,100.00
2023-05-14T01:29:10.032Z,100.00
2023-05-14T01:31:41.727Z,100.00
2023-05-14T01:34:10.078Z,100.00
2023-05-14T01:36:38.108Z,100.00
2023-05-14T01:39:09.449Z,100.00
2023-05-14T01:41:39.332Z,100.00
2023-05-14T01:44:07.123Z,100.00
2023-05-14T01:46:34.728Z,100.00
2023-05-14T01:49:02.263Z,100.00
2023-05-14T01:51:29.935Z,100.00
2023-05-14T01:53:57.551Z,100.00
2023-05-14T01:56:25.554Z,100.00
2023-05-14T01:58:53.308Z,100.00
2023-05-14T02:01:20.828Z,100.00
2023-05-14T02:03:48.452Z,100.00
2023-05-14T02:06:15.929Z,100.00
2023-05-14T02:08:43.474Z,100.00
2023-05-14T02:11:10.951Z,100.00
2023-05-14T02:13:38.502Z,100.00
2023-05-14T02:16:06.635Z,100.00
2023-05-14T02:18:34.313Z,100.00
2023-05-14T02:21:01.999Z,100.00
2023-05-14T02:23:40.481Z,100.00
2023-05-14T02:26:10.779Z,100.00
2023-05-14T02:28:38.436Z,100.00
2023-05-14T02:31:06.063Z,100.00
2023-05-14T02:33:33.811Z,100.00
2023-05-14T02:36:01.316Z,100.00
2023-05-14T02:38:28.797Z,100.00
2023-05-14T02:40:56.265Z,100.00
2023-05-14T02:43:23.782Z,100.00
2023-05-14T02:45:51.291Z,100.00
2023-05-14T02:48:18.768Z,100.00
2023-05-14T02:50:46.903Z,100.00
2023-05-14T02:53:14.387Z,100.00
2023-05-14T02:55:41.901Z,100.00
2023-05-14T02:58:10.298Z,100.00
2023-05-14T03:00:37.962Z,100.00
2023-05-14T03:03:06.164Z,100.00
2023-05-14T03:05:34.194Z,100.00
2023-05-14T03:08:01.910Z,100.00
2023-05-14T03:10:29.403Z,100.00
2023-05-14T03:12:56.905Z,100.00
2023-05-14T03:15:24.438Z,100.00
2023-05-14T03:17:52.074Z,100.00
2023-05-14T03:20:19.697Z,100.00
2023-05-14T03:22:47.322Z,100.00
2023-05-14T03:25:14.864Z,100.00
2023-05-14T03:27:42.409Z,100.00
2023-05-14T03:30:11.747Z,100.00
2023-05-14T03:32:39.316Z,100.00
2023-05-14T03:35:07.951Z,100.00
2023-05-14T03:37:35.464Z,100.00
2023-05-14T03:40:03.003Z,100.00
2023-05-14T03:42:30.544Z,100.00
2023-05-14T03:44:58.135Z,100.00
2023-05-14T03:47:25.697Z,100.00
2023-05-14T03:49:53.578Z,100.00
2023-05-14T03:52:21.029Z,100.00
2023-05-14T03:54:48.584Z,100.00
2023-05-14T03:57:16.124Z,100.00
2023-05-14T03:59:43.592Z,100.00
2023-05-14T04:02:11.129Z,100.00
2023-05-14T04:04:38.691Z,100.00
2023-05-14T04:07:06.218Z,100.00
2023-05-14T04:09:33.777Z,100.00
2023-05-14T04:12:01.370Z,100.00
2023-05-14T04:14:28.888Z,100.00
2023-05-14T04:16:56.385Z,100.00
2023-05-14T04:19:23.845Z,100.00
2023-05-14T04:21:51.460Z,100.00
2023-05-14T04:24:19.056Z,100.00
2023-05-14T04:26:46.618Z,100.00
2023-05-14T04:29:14.080Z,100.00
2023-05-14T04:31:42.107Z,100.00
2023-05-14T04:34:09.825Z,100.00
2023-05-14T04:36:37.323Z,100.00
2023-05-14T04:39:06.022Z,100.00
2023-05-14T04:41:33.957Z,100.00
2023-05-14T04:44:02.393Z,100.00
2023-05-14T04:46:29.973Z,100.00
2023-05-14T04:48:57.702Z,100.00
2023-05-14T04:51:26.376Z,100.00
2023-05-14T04:53:53.949Z,100.00
2023-05-14T04:56:21.584Z,100.00
2023-05-14T04:58:49.263Z,100.00
2023-05-14T05:01:16.905Z,100.00
2023-05-14T05:03:44.585Z,100.00
2023-05-14T05:06:12.315Z,100.00
2023-05-14T05:08:39.841Z,100.00
2023-05-14T05:11:07.299Z,100.00
2023-05-14T05:13:34.801Z,100.00
2023-05-14T05:16:02.543Z,100.00
2023-05-14T05:18:30.290Z,100.00
2023-05-14T05:20:57.867Z,100.00
2023-05-14T05:23:25.456Z,100.00
2023-05-14T05:25:53.078Z,100.00
2023-05-14T05:28:20.763Z,100.00
2023-05-14T05:30:48.451Z,100.00
2023-05-14T05:33:16.020Z,100.00
2023-05-14T05:35:44.558Z,100.00
2023-05-14T05:38:12.065Z,100.00
2023-05-14T05:40:39.668Z,100.00
2023-05-14T05:43:07.190Z,100.00
2023-05-14T05:45:34.720Z,100.00
2023-05-14T05:48:02.277Z,100.00
2023-05-14T05:50:29.797Z,100.00
2023-05-14T05:52:59.159Z,100.00
2023-05-14T05:55:26.923Z,100.00
2023-05-14T05:57:54.519Z,100.00
2023-05-14T06:02:50.107Z,100.00
2023-05-14T06:05:18.140Z,100.00
2023-05-14T06:07:45.733Z,100.00
2023-05-14T06:10:13.172Z,100.00
2023-05-14T06:12:40.850Z,100.00
2023-05-14T06:15:08.830Z,100.00
2023-05-14T06:17:36.362Z,100.00
2023-05-14T06:20:05.510Z,100.00
2023-05-14T06:22:33.040Z,100.00
2023-05-14T06:25:00.562Z,100.00
2023-05-14T06:27:28.137Z,100.00
2023-05-14T06:29:55.888Z,100.00
2023-05-14T06:32:23.670Z,100.00
2023-05-14T06:34:51.243Z,100.00
2023-05-14T06:37:18.717Z,100.00
2023-05-14T06:39:50.159Z,100.00
2023-05-14T06:42:18.974Z,100.00
2023-05-14T06:44:46.824Z,100.00
2023-05-14T06:47:14.404Z,100.00
2023-05-14T06:49:41.908Z,100.00
2023-05-14T06:52:09.476Z,100.00
2023-05-14T06:54:36.978Z,100.00
2023-05-14T06:57:04.723Z,100.00
2023-05-14T06:59:32.449Z,100.00
2023-05-14T07:02:00.014Z,100.00
2023-05-14T07:04:27.670Z,100.00
2023-05-14T07:06:55.179Z,100.00
2023-05-14T07:09:23.040Z,100.00
2023-05-14T07:11:50.498Z,100.00
2023-05-14T07:14:18.024Z,100.00
2023-05-14T07:16:46.896Z,100.00
2023-05-14T07:19:14.637Z,100.00
2023-05-14T07:21:42.370Z,100.00
2023-05-14T07:24:10.208Z,100.00
2023-05-14T07:26:37.859Z,100.00
2023-05-14T07:29:05.388Z,100.00
2023-05-14T07:31:33.284Z,100.00
2023-05-14T07:34:00.852Z,100.00
2023-05-14T07:36:28.447Z,100.00
2023-05-14T07:38:56.169Z,100.00
2023-05-14T07:41:23.689Z,100.00
2023-05-14T07:43:51.303Z,100.00
2023-05-14T07:46:19.451Z,100.00
2023-05-14T07:48:46.936Z,100.00
2023-05-14T07:51:14.457Z,100.00
2023-05-14T07:53:42.003Z,100.00
2023-05-14T07:56:09.496Z,100.00
2023-05-14T07:58:37.102Z,100.00
2023-05-14T08:01:07.206Z,100.00
2023-05-14T08:03:34.876Z,100.00
2023-05-14T08:06:02.487Z,100.00
2023-05-14T08:08:29.959Z,100.00
2023-05-14T08:10:57.453Z,100.00
2023-05-14T08:13:24.927Z,100.00
2023-05-14T08:15:52.590Z,100.00
2023-05-14T08:18:20.053Z,100.00
2023-05-14T08:20:48.307Z,100.00
2023-05-14T08:23:15.804Z,100.00
2023-05-14T08:25:43.397Z,100.00
2023-05-14T08:28:10.964Z,100.00
2023-05-14T08:30:38.559Z,100.00
2023-05-14T08:33:06.137Z,100.00
2023-05-14T08:35:33.626Z,100.00
2023-05-14T08:38:01.732Z,100.00
2023-05-14T08:40:29.468Z,100.00
2023-05-14T08:42:58.229Z,100.00
2023-05-14T08:45:33.822Z,100.00
2023-05-14T08:48:02.260Z,100.00
2023-05-14T08:50:31.253Z,100.00
2023-05-14T08:52:58.902Z,100.00
2023-05-14T08:55:28.169Z,100.00
2023-05-14T08:57:56.204Z,100.00
2023-05-14T09:00:24.981Z,100.00
2023-05-14T09:02:53.935Z,100.00
2023-05-14T09:05:22.090Z,100.00
2023-05-14T09:07:49.594Z,100.00
2023-05-14T09:10:18.482Z,100.00
2023-05-14T09:12:46.073Z,100.00
2023-05-14T09:15:13.978Z,100.00
2023-05-14T09:17:41.727Z,100.00
2023-05-14T09:20:10.487Z,100.00
2023-05-14T09:22:39.603Z,100.00
2023-05-14T09:25:12.213Z,100.00
2023-05-14T09:27:40.129Z,100.00
2023-05-14T09:30:12.076Z,100.00
2023-05-14T09:32:40.767Z,100.00
2023-05-14T09:35:17.399Z,100.00
2023-05-14T09:37:50.176Z,100.00
2023-05-14T09:40:19.319Z,100.00
2023-05-14T09:42:48.237Z,100.00
2023-05-14T09:45:16.649Z,100.00
2023-05-14T09:47:45.146Z,100.00
2023-05-14T09:50:13.254Z,100.00
2023-05-14T09:52:41.083Z,100.00
2023-05-14T09:55:09.103Z,100.00
2023-05-14T09:57:37.201Z,100.00
2023-05-14T10:00:05.255Z,100.00
2023-05-14T10:02:41.142Z,100.00
2023-05-14T10:05:09.672Z,100.00
2023-05-14T10:07:43.882Z,100.00
2023-05-14T10:10:16.407Z,100.00
2023-05-14T10:12:47.363Z,100.00
2023-05-14T10:15:20.741Z,100.00
2023-05-14T10:17:55.711Z,100.00
2023-05-14T10:20:24.433Z,100.00
2023-05-14T10:22:52.487Z,100.00
2023-05-14T10:25:20.818Z,100.00
2023-05-14T10:27:48.763Z,100.00
2023-05-14T10:30:16.387Z,100.00
2023-05-14T10:32:44.252Z,100.00
2023-05-14T10:35:25.328Z,100.00
2023-05-14T10:37:52.876Z,100.00
2023-05-14T10:40:21.401Z,100.00
2023-05-14T10:42:49.898Z,100.00
2023-05-14T10:45:17.878Z,96.76
2023-05-14T10:47:47.550Z,95.91
2023-05-14T10:50:17.514Z,100.00
2023-05-14T10:52:46.712Z,95.86
2023-05-14T10:55:16.117Z,98.47
2023-05-14T10:57:46.409Z,96.45
2023-05-14T11:00:15.775Z,94.35
2023-05-14T11:02:45.768Z,97.98
2023-05-14T11:05:18.095Z,96.26
2023-05-14T11:07:48.717Z,94.65
2023-05-14T11:10:17.271Z,92.48
2023-05-14T11:12:47.731Z,95.57
2023-05-14T11:15:17.793Z,93.33
2023-05-14T11:17:47.166Z,94.41
2023-05-14T11:20:16.629Z,94.19
2023-05-14T11:22:45.941Z,94.37
2023-05-14T11:25:15.002Z,95.45
2023-05-14T11:27:44.826Z,91.04
2023-05-14T11:30:21.550Z,92.24
2023-05-14T11:32:50.334Z,90.87
2023-05-14T11:35:18.874Z,92.05
2023-05-14T11:37:52.564Z,90.85
2023-05-14T11:40:20.500Z,92.15
2023-05-14T11:42:48.006Z,93.76
2023-05-14T11:45:26.284Z,90.22
2023-05-14T11:47:54.571Z,84.34
2023-05-14T11:50:23.649Z,88.78
2023-05-14T11:52:51.601Z,86.40
2023-05-14T11:55:19.141Z,84.31
2023-05-14T11:57:46.838Z,90.03
2023-05-14T12:00:21.323Z,84.31
2023-05-14T12:02:50.190Z,85.27
2023-05-14T12:05:18.174Z,83.63
2023-05-14T12:07:46.507Z,83.80
2023-05-14T12:10:14.309Z,87.61
2023-05-14T12:12:41.860Z,85.25
2023-05-14T12:15:13.826Z,82.03
2023-05-14T12:17:41.551Z,78.28
2023-05-14T12:20:11.706Z,84.00
2023-05-14T12:22:39.898Z,88.53
2023-05-14T12:25:14.386Z,83.81
2023-05-14T12:27:45.431Z,79.46
2023-05-14T12:32:48.953Z,83.56
2023-05-14T12:35:16.654Z,81.84
2023-05-14T12:37:44.221Z,79.80
2023-05-14T12:40:12.156Z,74.15
2023-05-14T12:42:39.753Z,71.95
2023-05-14T12:45:08.532Z,71.13
2023-05-14T12:47:37.289Z,70.14
2023-05-14T12:50:05.947Z,70.71
2023-05-14T12:52:38.426Z,71.44
2023-05-14T12:55:07.621Z,71.58
2023-05-14T12:57:35.631Z,69.50
2023-05-14T13:00:06.376Z,64.78
2023-05-14T13:02:42.359Z,60.42
2023-05-14T13:05:11.490Z,66.48
2023-05-14T13:07:39.548Z,68.52
2023-05-14T13:10:07.535Z,72.80
2023-05-14T13:12:35.308Z,71.76
2023-05-14T13:15:02.987Z,73.18
2023-05-14T13:17:30.636Z,73.96
2023-05-14T13:19:58.272Z,75.93
2023-05-14T13:22:25.834Z,69.82
2023-05-14T13:24:53.344Z,69.41
2023-05-14T13:27:20.844Z,65.91
2023-05-14T13:29:48.388Z,64.40
2023-05-14T13:32:15.846Z,57.28
2023-05-14T13:34:44.013Z,56.50
2023-05-14T13:37:11.963Z,54.25
2023-05-14T13:39:41.066Z,52.65
2023-05-14T13:42:08.920Z,52.82
2023-05-14T13:44:36.829Z,52.09
2023-05-14T13:47:04.514Z,50.35
2023-05-14T13:49:32.019Z,49.64
2023-05-14T13:52:00.773Z,45.86
2023-05-14T13:54:28.279Z,43.85
2023-05-14T13:56:56.124Z,48.34
2023-05-14T13:59:23.964Z,42.29
2023-05-14T14:01:51.724Z,42.16
2023-05-14T14:04:19.971Z,41.28
2023-05-14T14:06:47.518Z,40.96
2023-05-14T14:09:15.131Z,42.55
2023-05-14T14:11:42.625Z,42.64
2023-05-14T14:14:10.090Z,42.29
2023-05-14T14:16:37.642Z,43.13
2023-05-14T14:19:05.510Z,43.27
2023-05-14T14:21:34.067Z,41.76
2023-05-14T14:24:01.924Z,42.52
2023-05-14T14:26:29.531Z,41.98
2023-05-14T14:28:57.182Z,41.24
2023-05-14T14:31:25.084Z,42.80
2023-05-14T14:33:52.706Z,41.10
2023-05-14T14:36:20.316Z,42.57
2023-05-14T14:38:47.923Z,40.95
2023-05-14T14:41:15.562Z,42.13
2023-05-14T14:43:43.536Z,43.62
2023-05-14T14:46:11.258Z,41.18
2023-05-14T14:48:38.811Z,43.21
2023-05-14T14:51:07.921Z,44.38
2023-05-14T14:53:36.358Z,46.99
2023-05-14T14:56:04.075Z,49.75
2023-05-14T14:58:32.052Z,55.34
2023-05-14T15:00:59.674Z,57.25
2023-05-14T15:03:27.379Z,59.09
2023-05-14T15:05:54.930Z,59.20
2023-05-14T15:08:27.412Z,57.91
2023-05-14T15:10:59.438Z,59.58
2023-05-14T15:13:27.140Z,59.09
2023-05-14T15:15:54.801Z,56.53
2023-05-14T15:18:22.325Z,52.57
2023-05-14T15:20:52.809Z,54.04
2023-05-14T15:23:20.439Z,58.08
2023-05-14T15:25:49.186Z,60.91
2023-05-14T15:28:16.924Z,60.99
2023-05-14T15:30:44.587Z,60.77
2023-05-14T15:33:12.320Z,65.64
2023-05-14T15:35:39.953Z,67.30
2023-05-14T15:38:07.976Z,74.52
2023-05-14T15:40:35.645Z,76.99
2023-05-14T15:43:03.272Z,79.19
2023-05-14T15:45:30.991Z,79.86
2023-05-14T15:47:58.533Z,81.61
2023-05-14T15:50:27.407Z,84.64
2023-05-14T15:52:55.300Z,87.40
2023-05-14T15:55:23.038Z,90.10
2023-05-14T15:57:50.611Z,90.74
2023-05-14T16:00:18.422Z,91.63
2023-05-14T16:02:46.083Z,94.82
2023-05-14T16:05:15.002Z,97.68
2023-05-14T16:07:43.533Z,97.31
2023-05-14T16:10:11.489Z,100.00
2023-05-14T16:12:39.064Z,97.72
2023-05-14T16:15:08.200Z,100.00
2023-05-14T16:17:35.965Z,98.41
2023-05-14T16:20:04.746Z,100.00
2023-05-14T16:22:34.668Z,100.00
2023-05-14T16:25:03.519Z,100.00
2023-05-14T16:27:31.661Z,100.00
2023-05-14T16:29:59.180Z,100.00
2023-05-14T16:32:27.649Z,100.00
2023-05-14T16:34:56.550Z,100.00
2023-05-14T16:37:24.179Z,100.00
2023-05-14T16:39:51.734Z,100.00
2023-05-14T16:42:19.244Z,100.00
2023-05-14T16:44:46.704Z,100.00
2023-05-14T16:47:14.176Z,100.00
2023-05-14T16:49:41.686Z,100.00
2023-05-14T16:52:09.229Z,100.00
2023-05-14T16:54:36.968Z,100.00
2023-05-14T16:57:04.656Z,100.00
2023-05-14T16:59:32.291Z,100.00
2023-05-14T17:02:01.034Z,100.00
2023-05-14T17:04:28.944Z,100.00
2023-05-14T17:06:57.348Z,100.00
2023-05-14T17:09:24.887Z,100.00
2023-05-14T17:11:52.474Z,100.00
2023-05-14T17:14:20.007Z,100.00
2023-05-14T17:16:47.473Z,100.00
2023-05-14T17:19:15.048Z,100.00
2023-05-14T17:21:42.601Z,100.00
2023-05-14T17:24:10.099Z,100.00
2023-05-14T17:26:37.869Z,100.00
2023-05-14T17:29:05.554Z,100.00
2023-05-14T17:31:33.138Z,100.00
2023-05-14T17:34:00.716Z,100.00
2023-05-14T17:36:28.629Z,100.00
2023-05-14T17:38:56.318Z,100.00
2023-05-14T17:41:23.851Z,100.00
2023-05-14T17:43:52.399Z,100.00
2023-05-14T17:46:20.100Z,100.00
2023-05-14T17:48:47.637Z,100.00
2023-05-14T17:51:15.225Z,100.00
2023-05-14T17:53:42.686Z,100.00
2023-05-14T17:56:10.283Z,100.00
2023-05-14T17:58:37.816Z,100.00
2023-05-14T18:01:05.961Z,100.00
2023-05-14T18:03:33.940Z,100.00
2023-05-14T18:06:01.602Z,100.00
2023-05-14T18:08:29.121Z,100.00
2023-05-14T18:10:58.065Z,100.00
2023-05-14T18:13:25.679Z,100.00
2023-05-14T18:15:54.373Z,100.00
2023-05-14T18:18:23.993Z,100.00
2023-05-14T18:20:52.673Z,100.00
2023-05-14T18:23:20.247Z,100.00
2023-05-14T18:25:47.930Z,100.00
2023-05-14T18:28:15.651Z,100.00
2023-05-14T18:30:43.529Z,100.00
2023-05-14T18:33:11.209Z,100.00
2023-05-14T18:35:38.836Z,100.00
2023-05-14T18:38:07.900Z,100.00
2023-05-14T18:40:35.538Z,100.00
2023-05-14T18:43:03.088Z,100.00
2023-05-14T18:45:30.688Z,100.00
2023-05-14T18:47:58.440Z,100.00
2023-05-14T18:50:25.919Z,100.00
2023-05-14T18:52:53.564Z,100.00
2023-05-14T18:55:21.140Z,100.00
2023-05-14T18:57:48.722Z,100.00
2023-05-14T19:00:16.870Z,100.00
2023-05-14T19:02:44.496Z,100.00
2023-05-14T19:05:12.139Z,100.00
2023-05-14T19:07:40.740Z,100.00
2023-05-14T19:10:08.947Z,100.00
2023-05-14T19:12:36.465Z,100.00
2023-05-14T19:15:04.485Z,100.00
2023-05-14T19:17:32.801Z,100.00
2023-05-14T19:20:00.618Z,100.00
2023-05-14T19:22:28.075Z,100.00
2023-05-14T19:24:55.609Z,100.00
2023-05-14T19:27:24.217Z,100.00
2023-05-14T19:29:51.786Z,100.00
2023-05-14T19:32:19.453Z,100.00
2023-05-14T19:34:47.681Z,100.00
2023-05-14T19:37:15.935Z,100.00
2023-05-14T19:39:43.484Z,100.00
2023-05-14T19:42:11.006Z,100.00
2023-05-14T19:44:38.666Z,100.00
2023-05-14T19:47:06.601Z,100.00
2023-05-14T19:49:34.126Z,100.00
2023-05-14T19:52:01.673Z,100.00
2023-05-14T19:54:29.248Z,100.00
2023-05-14T19:56:56.790Z,100.00
2023-05-14T19:59:24.882Z,100.00
2023-05-14T20:01:54.510Z,100.00
2023-05-14T20:04:22.283Z,100.00
2023-05-14T20:06:49.732Z,100.00
2023-05-14T20:09:17.317Z,100.00
2023-05-14T20:11:44.777Z,100.00
2023-05-14T20:14:12.299Z,100.00
2023-05-14T20:16:39.994Z,100.00
2023-05-14T20:19:07.685Z,100.00
2023-05-14T20:21:35.254Z,100.00
2023-05-14T20:24:02.836Z,100.00
2023-05-14T20:26:30.306Z,100.00
2023-05-14T20:28:57.826Z,100.00
2023-05-14T20:31:25.387Z,100.00
2023-05-14T20:33:52.928Z,100.00
2023-05-14T20:36:20.525Z,100.00
2023-05-14T20:38:48.375Z,100.00
2023-05-14T20:41:16.091Z,100.00
2023-05-14T20:43:43.539Z,100.00
2023-05-14T20:46:11.163Z,100.00
2023-05-14T20:48:38.679Z,100.00
2023-05-14T20:51:06.527Z,100.00
2023-05-14T20:53:34.386Z,100.00
2023-05-14T20:56:02.123Z,100.00
2023-05-14T20:58:29.682Z,100.00
2023-05-14T21:00:58.650Z,100.00
2023-05-14T21:03:27.410Z,100.00
2023-05-14T21:05:56.702Z,100.00
2023-05-14T21:08:24.223Z,100.00
2023-05-14T21:10:51.696Z,100.00
2023-05-14T21:13:19.244Z,100.00
2023-05-14T21:15:47.048Z,100.00
2023-05-14T21:18:14.585Z,100.00
2023-05-14T21:20:42.286Z,100.00
2023-05-14T21:23:09.872Z,100.00
2023-05-14T21:25:37.570Z,100.00
2023-05-14T21:28:05.125Z,100.00
2023-05-14T21:30:32.573Z,100.00
2023-05-14T21:33:00.263Z,100.00
2023-05-14T21:35:27.880Z,100.00
2023-05-14T21:37:55.492Z,100.00
2023-05-14T21:40:22.984Z,100.00
2023-05-14T21:42:50.918Z,100.00
2023-05-14T21:45:18.527Z,100.00
2023-05-14T21:47:46.095Z,100.00
2023-05-14T21:50:13.753Z,100.00
2023-05-14T21:52:41.575Z,100.00
2023-05-14T21:55:09.533Z,100.00
2023-05-14T21:57:37.248Z,100.00
2023-05-14T22:00:08.119Z,100.00
2023-05-14T22:02:35.646Z,100.00
2023-05-14T22:05:03.151Z,100.00
2023-05-14T22:07:31.196Z,100.00
2023-05-14T22:09:58.779Z,100.00
2023-05-14T22:12:26.848Z,100.00
2023-05-14T22:14:54.354Z,100.00
2023-05-14T22:17:22.621Z,100.00
2023-05-14T22:19:50.273Z,100.00
2023-05-14T22:22:17.790Z,100.00
2023-05-14T22:24:45.489Z,100.00
2023-05-14T22:27:12.971Z,100.00
2023-05-14T22:29:41.053Z,100.00
2023-05-14T22:32:10.137Z,100.00
2023-05-14T22:34:38.561Z,100.00
2023-05-14T22:37:06.452Z,100.00
2023-05-14T22:39:33.935Z,100.00
2023-05-14T22:42:01.489Z,100.00
2023-05-14T22:44:30.004Z,100.00
2023-05-14T22:46:57.862Z,100.00
2023-05-14T22:49:25.409Z,100.00
2023-05-14T22:51:54.198Z,100.00
2023-05-14T22:54:22.301Z,100.00
2023-05-14T22:56:49.917Z,100.00
2023-05-14T22:59:17.453Z,100.00
2023-05-14T23:01:45.235Z,100.00
2023-05-14T23:04:13.020Z,100.00
2023-05-14T23:06:40.555Z,100.00
2023-05-14T23:09:08.059Z,100.00
2023-05-14T23:11:35.586Z,100.00
2023-05-14T23:14:03.109Z,100.00
2023-05-14T23:16:30.660Z,100.00
2023-05-14T23:18:58.321Z,100.00
2023-05-14T23:21:26.048Z,100.00
2023-05-14T23:23:53.594Z,100.00
2023-05-14T23:26:21.518Z,100.00
2023-05-14T23:28:49.069Z,100.00
2023-05-14T23:31:16.638Z,100.00
2023-05-14T23:33:45.005Z,100.00
2023-05-14T23:36:12.562Z,100.00
2023-05-14T23:38:40.643Z,100.00
2023-05-14T23:41:08.293Z,100.00
2023-05-14T23:43:36.004Z,100.00
2023-05-14T23:46:03.953Z,100.00
2023-05-14T23:48:31.759Z,100.00
2023-05-14T23:50:59.327Z,100.00
2023-05-14T23:53:26.925Z,100.00
2023-05-14T23:55:54.442Z,100.00
2023-05-14T23:58:22.048Z,100.00
